Time;durP1;ratioP1;P1;durP2;ratioP2;P2;SDS_P1;SDS_P2;PMS_P1;PMS_P2;Temp;Humidity;BMP_temperature;BMP_pressure;BME280_temperature;BME280_humidity;BME280_pressure;Samples;Min_cycle;Max_cycle;Signal;HPM_P1;HPM_P2
2023/12/30 00:00:59;;;;;;;60.20;34.10;;;;;;;-0.12;100.00;101099.14;109272;1243;73304;-71
2023/12/30 00:03:36;;;;;;;60.10;34.40;;;;;;;-0.18;100.00;101098.23;109233;1244;72569;-74
2023/12/30 00:06:05;;;;;;;56.40;32.30;;;;;;;-0.21;100.00;101099.69;109242;1246;70844;-73
2023/12/30 00:08:34;;;;;;;56.90;33.00;;;;;;;-0.21;100.00;101099.18;109174;1245;72361;-72
2023/12/30 00:11:03;;;;;;;52.90;30.50;;;;;;;-0.21;100.00;101100.89;109156;1247;59737;-73
2023/12/30 00:13:32;;;;;;;55.80;31.80;;;;;;;-0.23;100.00;101099.21;109203;1244;60949;-73
2023/12/30 00:16:00;;;;;;;58.00;33.10;;;;;;;-0.27;100.00;101104.10;109321;1243;73769;-75
2023/12/30 00:18:29;;;;;;;58.50;32.30;;;;;;;-0.31;100.00;101104.00;109429;1245;71203;-73
2023/12/30 00:20:59;;;;;;;51.00;29.70;;;;;;;-0.34;100.00;101107.66;109416;1244;67863;-72
2023/12/30 00:23:27;;;;;;;54.30;30.30;;;;;;;-0.36;100.00;101103.60;109395;1244;73010;-71
2023/12/30 00:26:08;;;;;;;53.10;30.70;;;;;;;-0.36;100.00;101105.29;109321;1247;62386;-73
2023/12/30 00:28:37;;;;;;;53.60;29.80;;;;;;;-0.38;100.00;101106.71;109171;1244;62621;-72
2023/12/30 00:31:06;;;;;;;51.70;30.10;;;;;;;-0.40;100.00;101104.55;109313;1247;72125;-71
2023/12/30 00:33:35;;;;;;;50.00;29.90;;;;;;;-0.45;100.00;101103.61;109265;1244;69651;-71
2023/12/30 00:36:04;;;;;;;49.40;29.50;;;;;;;-0.46;100.00;101102.95;109160;1244;70224;-72
2023/12/30 00:38:33;;;;;;;52.80;28.50;;;;;;;-0.46;100.00;101108.42;109171;1244;72214;-72
2023/12/30 00:41:02;;;;;;;45.50;28.00;;;;;;;-0.47;100.00;101110.14;109231;1245;60441;-71
2023/12/30 00:43:32;;;;;;;51.00;28.70;;;;;;;-0.46;100.00;101109.45;109227;1245;60086;-72
2023/12/30 00:46:00;;;;;;;51.60;29.10;;;;;;;-0.48;100.00;101108.98;109220;1245;73535;-71
2023/12/30 00:48:30;;;;;;;45.20;27.50;;;;;;;-0.49;100.00;101116.01;109201;1246;69608;-73
2023/12/30 00:51:01;;;;;;;42.20;26.00;;;;;;;-0.51;100.00;101115.36;109246;1244;69585;-72
2023/12/30 00:53:30;;;;;;;42.40;25.40;;;;;;;-0.55;100.00;101118.52;109004;1244;74247;-70
2023/12/30 00:55:58;;;;;;;45.30;25.10;;;;;;;-0.58;100.00;101111.06;109105;1247;60872;-73
2023/12/30 00:58:27;;;;;;;46.50;27.40;;;;;;;-0.61;100.00;101114.37;109133;1246;59648;-71
2023/12/30 01:00:56;;;;;;;57.70;33.40;;;;;;;-0.61;100.00;101114.22;109222;1245;71461;-73
2023/12/30 01:03:25;;;;;;;46.30;27.20;;;;;;;-0.62;100.00;101108.94;109070;1245;70198;-73
2023/12/30 01:05:54;;;;;;;41.20;25.60;;;;;;;-0.62;100.00;101103.96;109088;1244;68454;-73
2023/12/30 01:08:23;;;;;;;39.90;24.20;;;;;;;-0.64;100.00;101102.27;109107;1244;71139;-73
2023/12/30 01:10:52;;;;;;;48.00;27.00;;;;;;;-0.66;100.00;101100.27;109009;1249;60333;-75
2023/12/30 01:13:21;;;;;;;49.50;29.40;;;;;;;-0.67;100.00;101096.36;109279;1245;60177;-75
2023/12/30 01:15:51;;;;;;;48.70;32.00;;;;;;;-0.67;100.00;101096.53;109249;1244;73962;-73
2023/12/30 01:18:20;;;;;;;46.50;27.80;;;;;;;-0.65;100.00;101097.85;109183;1247;72053;-74
2023/12/30 01:20:49;;;;;;;52.30;31.20;;;;;;;-0.64;100.00;101095.77;109268;1243;69570;-72
2023/12/30 01:23:17;;;;;;;54.10;30.40;;;;;;;-0.62;100.00;101093.70;109237;1245;74281;-73
2023/12/30 01:25:46;;;;;;;47.00;28.10;;;;;;;-0.61;100.00;101087.17;109177;1247;59651;-73
2023/12/30 01:28:15;;;;;;;43.70;26.80;;;;;;;-0.61;100.00;101084.09;109247;1244;60230;-73
2023/12/30 01:30:43;;;;;;;46.70;26.80;;;;;;;-0.64;100.00;101081.77;109177;1245;74184;-73
2023/12/30 01:33:12;;;;;;;46.70;28.50;;;;;;;-0.68;100.00;101076.03;109198;1245;70248;-74
2023/12/30 01:35:41;;;;;;;49.50;29.90;;;;;;;-0.67;100.00;101073.28;109225;1244;68553;-73
2023/12/30 01:38:11;;;;;;;51.60;28.70;;;;;;;-0.67;100.00;101071.39;109368;1244;73031;-74
2023/12/30 01:40:39;;;;;;;54.10;30.50;;;;;;;-0.68;100.00;101071.07;109304;1247;62200;-71
2023/12/30 01:43:25;;;;;;;49.20;28.70;;;;;;;-0.70;100.00;101071.95;109387;1245;58630;-73
2023/12/30 01:46:03;;;;;;;44.50;26.10;;;;;;;-0.70;100.00;101069.20;109354;1244;72685;-73
2023/12/30 01:48:33;;;;;;;41.10;25.10;;;;;;;-0.67;100.00;101072.23;109299;1244;70821;-73
2023/12/30 01:51:04;;;;;;;46.60;26.00;;;;;;;-0.65;100.00;101073.40;109290;1244;68748;-73
2023/12/30 01:53:52;;;;;;;44.10;25.60;;;;;;;-0.64;100.00;101075.40;109429;1244;73906;-72
2023/12/30 01:56:24;;;;;;;44.30;25.20;;;;;;;-0.64;100.00;101073.02;109352;1247;62119;-73
2023/12/30 01:58:53;;;;;;;41.70;23.90;;;;;;;-0.67;100.00;101075.84;109317;1246;59497;-74
2023/12/30 02:01:26;;;;;;;52.00;30.60;;;;;;;-0.70;100.00;101078.12;109272;1244;70711;-73
2023/12/30 02:03:55;;;;;;;59.80;33.50;;;;;;;-0.71;100.00;101081.90;109419;1245;70152;-72
2023/12/30 02:06:25;;;;;;;65.50;36.10;;;;;;;-0.69;100.00;101082.71;109362;1244;69704;-73
2023/12/30 02:08:54;;;;;;;61.60;37.20;;;;;;;-0.67;100.00;101081.30;109323;1244;72737;-74
2023/12/30 02:11:23;;;;;;;55.60;33.00;;;;;;;-0.64;100.00;101080.38;109360;1245;62942;-72
2023/12/30 02:13:52;;;;;;;57.50;33.20;;;;;;;-0.60;100.00;101082.20;109399;1244;61031;-74
2023/12/30 02:16:21;;;;;;;62.40;35.40;;;;;;;-0.59;100.00;101082.66;109253;1244;71377;-72
2023/12/30 02:18:50;;;;;;;60.20;34.90;;;;;;;-0.58;100.00;101077.85;109396;1244;69348;-72
2023/12/30 02:21:19;;;;;;;61.50;36.40;;;;;;;-0.56;100.00;101077.66;109350;1244;68489;-73
2023/12/30 02:23:54;;;;;;;61.40;35.00;;;;;;;-0.54;100.00;101076.59;109343;1244;71877;-72
2023/12/30 02:26:24;;;;;;;55.40;33.80;;;;;;;-0.52;100.00;101073.98;109358;1244;59585;-72
2023/12/30 02:28:53;;;;;;;58.70;35.60;;;;;;;-0.52;100.00;101074.98;109372;1244;61042;-71
2023/12/30 02:31:21;;;;;;;56.70;32.90;;;;;;;-0.52;100.00;101077.23;109434;1244;73986;-73
2023/12/30 02:33:50;;;;;;;58.60;33.20;;;;;;;-0.52;100.00;101075.17;109420;1244;72633;-69
2023/12/30 02:36:19;;;;;;;54.70;31.80;;;;;;;-0.55;100.00;101082.95;109296;1244;68563;-71
2023/12/30 02:38:48;;;;;;;51.90;30.70;;;;;;;-0.57;100.00;101079.05;109160;1244;73653;-70
2023/12/30 02:41:17;;;;;;;58.10;37.90;;;;;;;-0.61;100.00;101077.27;109158;1246;60967;-71
2023/12/30 02:43:59;;;;;;;55.30;33.00;;;;;;;-0.64;100.00;101081.07;109122;1244;58775;-70
2023/12/30 02:46:29;;;;;;;51.40;29.90;;;;;;;-0.66;100.00;101084.36;109023;1244;71600;-69
2023/12/30 02:49:03;;;;;;;50.50;29.30;;;;;;;-0.68;100.00;101079.77;109160;1244;72315;-69
2023/12/30 02:51:35;;;;;;;54.70;31.00;;;;;;;-0.70;100.00;101077.95;109220;1244;68948;-70
2023/12/30 02:54:04;;;;;;;51.30;30.60;;;;;;;-0.74;100.00;101075.29;109305;1245;71866;-69
2023/12/30 02:56:33;;;;;;;50.60;31.50;;;;;;;-0.76;100.00;101075.33;109204;1247;61921;-69
2023/12/30 02:59:02;;;;;;;53.10;31.90;;;;;;;-0.76;100.00;101075.48;109215;1245;60179;-69
2023/12/30 03:01:31;;;;;;;46.10;29.50;;;;;;;-0.78;100.00;101080.67;109231;1245;74132;-69
2023/12/30 03:04:01;;;;;;;62.50;35.40;;;;;;;-0.76;100.00;101080.13;109319;1245;72136;-69
2023/12/30 03:06:30;;;;;;;53.30;32.00;;;;;;;-0.77;100.00;101083.05;109261;1245;70750;-69
2023/12/30 03:08:59;;;;;;;50.60;32.50;;;;;;;-0.79;100.00;101083.25;109168;1245;71155;-68
2023/12/30 03:11:28;;;;;;;52.60;31.50;;;;;;;-0.78;100.00;101085.98;109215;1245;59790;-71
2023/12/30 03:13:57;;;;;;;52.10;30.20;;;;;;;-0.79;100.00;101086.50;109237;1244;60473;-72
2023/12/30 03:16:26;;;;;;;55.80;33.00;;;;;;;-0.80;100.00;101086.86;109248;1244;73956;-72
2023/12/30 03:18:55;;;;;;;52.70;31.60;;;;;;;-0.82;100.00;101090.14;109248;1245;71842;-70
2023/12/30 03:21:25;;;;;;;46.00;28.00;;;;;;;-0.85;100.00;101091.73;109227;1244;67455;-72
2023/12/30 03:23:54;;;;;;;49.50;28.70;;;;;;;-0.88;100.00;101095.40;109232;1244;73833;-71
2023/12/30 03:26:22;;;;;;;51.70;30.40;;;;;;;-0.94;100.00;101095.01;109036;1245;62307;-72
2023/12/30 03:28:51;;;;;;;55.10;30.80;;;;;;;-0.94;100.00;101095.17;109193;1244;59391;-72
2023/12/30 03:31:29;;;;;;;55.10;31.00;;;;;;;-0.97;100.00;101098.46;109288;1246;71176;-73
2023/12/30 03:33:58;;;;;;;46.20;27.60;;;;;;;-0.97;100.00;101099.84;109344;1244;70126;-72
2023/12/30 03:36:27;;;;;;;48.20;28.60;;;;;;;-1.00;100.00;101099.21;109339;1243;67947;-72
2023/12/30 03:38:56;;;;;;;55.00;32.60;;;;;;;-1.05;100.00;101102.38;109364;1244;71883;-72
2023/12/30 03:41:25;;;;;;;59.40;34.20;;;;;;;-1.06;100.00;101102.39;109370;1247;61986;-72
2023/12/30 03:43:54;;;;;;;53.80;31.60;;;;;;;-1.04;100.00;101105.27;109356;1244;59298;-71
2023/12/30 03:46:23;;;;;;;55.80;31.30;;;;;;;-1.04;100.00;101102.02;109369;1244;71174;-72
2023/12/30 03:48:52;;;;;;;45.10;28.20;;;;;;;-1.05;100.00;101104.78;109261;1244;72352;-71
2023/12/30 03:51:21;;;;;;;47.60;28.40;;;;;;;-1.07;100.00;101102.75;109119;1244;70369;-71
2023/12/30 03:53:50;;;;;;;45.00;27.10;;;;;;;-1.12;100.00;101098.92;109154;1244;73145;-70
2023/12/30 03:56:19;;;;;;;48.90;27.00;;;;;;;-1.14;100.00;101099.64;109062;1244;61213;-71
2023/12/30 03:58:48;;;;;;;50.10;29.40;;;;;;;-1.16;100.00;101102.91;109074;1247;59513;-72
2023/12/30 04:01:17;;;;;;;48.50;27.80;;;;;;;-1.17;100.00;101105.33;109099;1243;73651;-71
2023/12/30 04:03:47;;;;;;;47.10;27.00;;;;;;;-1.19;100.00;101106.90;109073;1244;70801;-70
2023/12/30 04:06:19;;;;;;;52.10;33.20;;;;;;;-1.22;100.00;101107.13;109176;1245;70241;-70
2023/12/30 04:08:47;;;;;;;47.90;29.10;;;;;;;-1.26;100.00;101107.88;109089;1247;74482;-68
2023/12/30 04:11:16;;;;;;;51.40;29.70;;;;;;;-1.27;100.00;101109.77;109073;1247;59905;-70
2023/12/30 04:13:45;;;;;;;47.80;28.60;;;;;;;-1.28;100.00;101107.91;109164;1245;58639;-69
2023/12/30 04:16:14;;;;;;;55.50;29.60;;;;;;;-1.27;100.00;101113.35;109079;1247;72470;-70
2023/12/30 04:18:43;;;;;;;54.00;30.80;;;;;;;-1.26;100.00;101108.55;109119;1247;70204;-70
2023/12/30 04:21:12;;;;;;;50.90;31.10;;;;;;;-1.27;100.00;101106.34;109151;1245;69675;-71
2023/12/30 04:23:42;;;;;;;47.20;28.90;;;;;;;-1.31;100.00;101105.73;109070;1247;71760;-71
2023/12/30 04:26:12;;;;;;;52.60;30.40;;;;;;;-1.31;100.00;101105.58;109083;1245;59627;-70
2023/12/30 04:28:41;;;;;;;47.90;29.10;;;;;;;-1.31;100.00;101111.05;109093;1244;60030;-70
2023/12/30 04:31:09;;;;;;;53.20;30.30;;;;;;;-1.30;100.00;101108.14;109331;1244;74693;-70
2023/12/30 04:33:38;;;;;;;46.30;29.20;;;;;;;-1.30;100.00;101106.41;109352;1244;72441;-70
2023/12/30 04:36:07;;;;;;;62.70;35.30;;;;;;;-1.29;100.00;101104.35;109327;1244;69154;-70
2023/12/30 04:38:39;;;;;;;61.40;36.10;;;;;;;-1.28;100.00;101103.48;109226;1248;71779;-70
2023/12/30 04:41:08;;;;;;;63.00;35.50;;;;;;;-1.27;100.00;101100.55;109405;1246;62145;-71
2023/12/30 04:43:36;;;;;;;67.60;39.70;;;;;;;-1.26;100.00;101095.91;109364;1244;61378;-71
2023/12/30 04:46:05;;;;;;;58.40;34.10;;;;;;;-1.24;100.00;101096.58;109396;1245;73004;-74
2023/12/30 04:48:34;;;;;;;64.10;36.70;;;;;;;-1.24;100.00;101097.77;109263;1248;70383;-72
2023/12/30 04:51:03;;;;;;;69.70;39.50;;;;;;;-1.23;100.00;101096.39;109296;1244;70124;-72
2023/12/30 04:53:33;;;;;;;56.00;34.00;;;;;;;-1.21;100.00;101093.09;109206;1244;74300;-71
2023/12/30 04:56:02;;;;;;;61.90;36.10;;;;;;;-1.23;100.00;101095.19;109271;1247;62768;-70
2023/12/30 04:58:31;;;;;;;72.90;40.30;;;;;;;-1.23;100.00;101093.64;109433;1246;59012;-71
2023/12/30 05:01:00;;;;;;;64.50;36.90;;;;;;;-1.22;100.00;101093.27;109424;1246;73200;-69
2023/12/30 05:03:29;;;;;;;63.40;35.60;;;;;;;-1.22;100.00;101092.61;109316;1244;73016;-72
2023/12/30 05:05:57;;;;;;;65.20;36.70;;;;;;;-1.21;100.00;101099.08;109440;1244;70880;-70
2023/12/30 05:08:26;;;;;;;71.00;41.20;;;;;;;-1.20;100.00;101098.04;109403;1244;72943;-71
2023/12/30 05:10:55;;;;;;;59.70;35.20;;;;;;;-1.18;100.00;101097.83;109405;1246;60282;-73
2023/12/30 05:13:25;;;;;;;57.40;33.80;;;;;;;-1.17;100.00;101094.73;109445;1245;58673;-72
2023/12/30 05:15:54;;;;;;;61.60;33.60;;;;;;;-1.20;100.00;101093.07;109405;1246;72275;-73
2023/12/30 05:18:23;;;;;;;59.30;34.40;;;;;;;-1.23;100.00;101090.20;109436;1245;70266;-73
2023/12/30 05:20:52;;;;;;;60.00;36.10;;;;;;;-1.25;100.00;101091.97;109320;1244;69327;-71
2023/12/30 05:23:20;;;;;;;58.30;35.00;;;;;;;-1.25;100.00;101097.25;109377;1244;73441;-71
2023/12/30 05:25:49;;;;;;;61.60;33.50;;;;;;;-1.24;100.00;101096.07;109396;1245;60172;-71
2023/12/30 05:28:18;;;;;;;67.20;36.50;;;;;;;-1.21;100.00;101093.27;109422;1244;59257;-71
2023/12/30 05:30:47;;;;;;;55.60;33.70;;;;;;;-1.19;100.00;101093.90;109352;1246;71808;-71
2023/12/30 05:33:16;;;;;;;65.90;39.00;;;;;;;-1.20;100.00;101096.84;109466;1246;69559;-71
2023/12/30 05:35:45;;;;;;;58.80;39.00;;;;;;;-1.21;100.00;101102.83;109414;1247;68527;-70
2023/12/30 05:38:14;;;;;;;60.00;34.50;;;;;;;-1.21;100.00;101099.59;109413;1247;71643;-70
2023/12/30 05:40:43;;;;;;;59.70;33.40;;;;;;;-1.21;100.00;101099.92;109453;1244;60971;-70
2023/12/30 05:43:12;;;;;;;57.70;31.90;;;;;;;-1.23;100.00;101099.29;109475;1245;61007;-70
2023/12/30 05:45:43;;;;;;;58.80;33.00;;;;;;;-1.29;100.00;101098.18;109472;1244;74761;-70
2023/12/30 05:48:13;;;;;;;59.80;32.40;;;;;;;-1.34;100.00;101096.73;109459;1244;72596;-70
2023/12/30 05:50:42;;;;;;;55.60;31.70;;;;;;;-1.34;100.00;101099.81;109464;1246;68193;-71
2023/12/30 05:53:11;;;;;;;61.70;35.60;;;;;;;-1.36;100.00;101102.91;109382;1244;72848;-70
2023/12/30 05:55:39;;;;;;;63.10;34.40;;;;;;;-1.38;100.00;101105.68;109333;1247;62222;-71
2023/12/30 05:58:09;;;;;;;65.20;34.90;;;;;;;-1.41;100.00;101102.66;109401;1245;61438;-71
2023/12/30 06:00:38;;;;;;;60.20;34.50;;;;;;;-1.35;100.00;101104.95;109425;1247;74315;-72
2023/12/30 06:03:07;;;;;;;63.80;38.30;;;;;;;-1.34;100.00;101104.42;109465;1245;69875;-71
2023/12/30 06:05:36;;;;;;;68.20;37.60;;;;;;;-1.31;100.00;101104.71;109463;1245;70621;-71
2023/12/30 06:08:06;;;;;;;63.40;37.60;;;;;;;-1.31;100.00;101104.72;109448;1243;74006;-70
2023/12/30 06:10:34;;;;;;;66.70;36.70;;;;;;;-1.27;100.00;101108.41;109454;1245;61215;-72
2023/12/30 06:13:03;;;;;;;70.10;40.40;;;;;;;-1.24;100.00;101107.52;109436;1244;60620;-71
2023/12/30 06:15:33;;;;;;;67.70;38.20;;;;;;;-1.20;100.00;101109.48;109489;1245;73695;-70
2023/12/30 06:18:02;;;;;;;70.10;40.10;;;;;;;-1.15;100.00;101118.80;109442;1245;72728;-69
2023/12/30 06:20:31;;;;;;;76.00;45.80;;;;;;;-1.13;100.00;101123.38;109483;1244;70435;-69
2023/12/30 06:22:59;;;;;;;67.80;40.30;;;;;;;-1.00;100.00;101129.48;109355;1244;74127;-71
2023/12/30 06:25:28;;;;;;;62.40;37.90;;;;;;;-0.85;100.00;101139.11;109412;1245;61955;-70
2023/12/30 06:27:57;;;;;;;59.60;35.20;;;;;;;-0.79;100.00;101147.55;109447;1245;60612;-70
2023/12/30 06:30:26;;;;;;;60.80;34.40;;;;;;;-0.72;100.00;101158.54;109484;1246;72391;-69
2023/12/30 06:32:55;;;;;;;56.90;34.30;;;;;;;-0.65;100.00;101163.73;109449;1244;72181;-69
2023/12/30 06:35:23;;;;;;;48.80;29.80;;;;;;;-0.62;100.00;101162.45;109449;1244;70020;-71
2023/12/30 06:37:52;;;;;;;53.90;31.60;;;;;;;-0.56;100.00;101160.80;109462;1244;72432;-69
2023/12/30 06:40:21;;;;;;;53.90;30.80;;;;;;;-0.53;100.00;101163.48;109406;1247;60320;-69
2023/12/30 06:42:50;;;;;;;47.50;29.00;;;;;;;-0.52;100.00;101164.50;109471;1244;58689;-70
2023/12/30 06:45:19;;;;;;;52.10;30.20;;;;;;;-0.45;100.00;101163.67;109413;1244;74342;-71
2023/12/30 06:47:47;;;;;;;51.00;30.30;;;;;;;-0.38;100.00;101160.62;109469;1244;72697;-72
2023/12/30 06:50:19;;;;;;;56.40;32.90;;;;;;;-0.31;100.00;101161.16;109466;1246;69341;-71
2023/12/30 06:52:49;;;;;;;;;;;;;;;-0.27;100.00;101163.99;109382;1244;73885;-71
2023/12/30 06:55:18;;;;;;;59.10;34.60;;;;;;;-0.19;100.00;101160.77;109331;1247;60119;-71
2023/12/30 06:57:56;;;;;;;61.70;37.60;;;;;;;-0.09;100.00;101161.73;109388;1244;59470;-69
2023/12/30 07:00:25;;;;;;;71.70;40.80;;;;;;;0.01;100.00;101158.78;109326;1246;74190;-70
2023/12/30 07:02:54;;;;;;;71.00;45.30;;;;;;;0.12;100.00;101160.27;109384;1244;70745;-72
2023/12/30 07:05:22;;;;;;;66.20;40.50;;;;;;;0.18;100.00;101158.92;109340;1244;70848;-71
2023/12/30 07:07:51;;;;;;;72.10;42.00;;;;;;;0.27;100.00;101159.93;109308;1247;71730;-71
2023/12/30 07:10:20;;;;;;;69.80;41.20;;;;;;;0.36;100.00;101156.13;109227;1246;60371;-71
2023/12/30 07:12:49;;;;;;;70.20;41.50;;;;;;;0.48;100.00;101153.77;109279;1245;61017;-71
2023/12/30 07:15:17;;;;;;;70.10;42.10;;;;;;;0.59;100.00;101148.21;109242;1247;74823;-72
2023/12/30 07:17:49;;;;;;;68.30;41.00;;;;;;;0.70;100.00;101146.90;109179;1244;72562;-70
2023/12/30 07:20:18;;;;;;;67.30;40.90;;;;;;;0.80;100.00;101146.66;109298;1245;68899;-71
2023/12/30 07:22:47;;;;;;;78.60;45.50;;;;;;;0.90;100.00;101142.30;109288;1243;74406;-70
2023/12/30 07:25:15;;;;;;;70.40;41.90;;;;;;;1.00;100.00;101141.16;109217;1246;62704;-70
2023/12/30 07:27:45;;;;;;;77.70;44.60;;;;;;;1.12;100.00;101142.60;109194;1247;61385;-70
2023/12/30 07:30:14;;;;;;;82.00;46.70;;;;;;;1.22;100.00;101141.80;109182;1244;73587;-70
2023/12/30 07:32:43;;;;;;;82.60;46.60;;;;;;;1.33;100.00;101141.86;109211;1244;72687;-70
2023/12/30 07:35:12;;;;;;;109.40;61.60;;;;;;;1.43;100.00;101141.08;109197;1244;70918;-70
2023/12/30 07:37:40;;;;;;;117.50;64.90;;;;;;;1.54;100.00;101141.44;109185;1245;74212;-70
2023/12/30 07:40:10;;;;;;;87.40;50.30;;;;;;;1.68;100.00;101140.54;109224;1245;59995;-70
2023/12/30 07:42:39;;;;;;;83.90;49.50;;;;;;;1.81;100.00;101137.05;109233;1245;61031;-69
2023/12/30 07:45:09;;;;;;;79.50;49.10;;;;;;;1.95;100.00;101141.45;109169;1244;75024;-70
2023/12/30 07:47:38;;;;;;;81.60;48.60;;;;;;;2.09;100.00;101142.40;109256;1243;72393;-70
2023/12/30 07:50:07;;;;;;;80.50;48.70;;;;;;;2.24;100.00;101140.05;109368;1244;69968;-71
2023/12/30 07:52:36;;;;;;;80.30;45.00;;;;;;;2.39;100.00;101137.02;109341;1246;74343;-72
2023/12/30 07:55:05;;;;;;;78.30;46.00;;;;;;;2.52;100.00;101134.20;109342;1245;60885;-70
2023/12/30 07:57:34;;;;;;;77.50;45.60;;;;;;;2.61;100.00;101133.73;109429;1245;59488;-70
2023/12/30 08:00:04;;;;;;;78.10;46.10;;;;;;;2.66;100.00;101136.85;109377;1243;72457;-71
2023/12/30 08:02:40;;;;;;;75.30;44.40;;;;;;;2.88;100.00;101143.31;109405;1244;72085;-70
2023/12/30 08:05:09;;;;;;;74.00;44.70;;;;;;;2.98;100.00;101145.76;109288;1244;61130;-69
2023/12/30 08:07:38;;;;;;;78.30;45.30;;;;;;;3.00;100.00;101147.90;109382;1244;63183;-72
2023/12/30 08:10:07;;;;;;;77.00;44.90;;;;;;;3.10;100.00;101149.13;109275;1247;59128;-70
2023/12/30 08:12:37;;;;;;;73.70;45.30;;;;;;;3.21;100.00;101149.62;109441;1245;58170;-69
2023/12/30 08:15:08;;;;;;;76.70;46.30;;;;;;;3.36;100.00;101151.48;109233;1249;74828;-69
2023/12/30 08:17:37;;;;;;;74.90;46.80;;;;;;;3.50;100.00;101151.51;109388;1245;72680;-70
2023/12/30 08:20:06;;;;;;;75.40;45.00;;;;;;;3.58;100.00;101152.77;109321;1244;70487;-72
2023/12/30 08:22:35;;;;;;;77.80;45.00;;;;;;;3.64;100.00;101157.36;109387;1244;62590;-71
2023/12/30 08:25:05;;;;;;;71.20;44.80;;;;;;;3.66;100.00;101153.85;109385;1245;58354;-70
2023/12/30 08:27:34;;;;;;;76.00;44.70;;;;;;;3.70;100.00;101154.03;109392;1244;58399;-70
2023/12/30 08:30:04;;;;;;;79.90;44.00;;;;;;;3.77;100.00;101158.27;109411;1245;63755;-70
2023/12/30 08:32:33;;;;;;;72.80;43.10;;;;;;;3.83;100.00;101154.93;109286;1246;60720;-70
2023/12/30 08:35:03;;;;;;;69.40;42.90;;;;;;;3.88;100.00;101152.34;109289;1244;60413;-69
2023/12/30 08:37:32;;;;;;;69.80;42.60;;;;;;;3.94;100.00;101150.92;109307;1244;73685;-71
2023/12/30 08:40:00;;;;;;;65.70;42.10;;;;;;;4.02;100.00;101147.52;109329;1246;62298;-69
2023/12/30 08:42:34;;;;;;;71.10;43.40;;;;;;;4.10;100.00;101147.21;109373;1244;60815;-70
2023/12/30 08:45:07;;;;;;;66.20;41.80;;;;;;;4.27;100.00;101145.15;109375;1244;63315;-72
2023/12/30 08:47:37;;;;;;;69.20;41.60;;;;;;;4.40;100.00;101144.27;109299;1245;71242;-71
2023/12/30 08:50:06;;;;;;;67.60;39.30;;;;;;;4.50;100.00;101135.64;109383;1244;70890;-70
2023/12/30 08:52:35;;;;;;;66.90;39.90;;;;;;;4.71;100.00;101131.47;109322;1246;63584;-72
2023/12/30 08:55:10;;;;;;;65.20;40.90;;;;;;;4.87;100.00;101127.38;109357;1245;58247;-70
2023/12/30 08:57:39;;;;;;;63.20;40.40;;;;;;;4.95;100.00;101117.55;109285;1245;57710;-70
2023/12/30 09:00:10;;;;;;;57.20;35.80;;;;;;;5.11;100.00;101113.04;109214;1244;74098;-69
2023/12/30 09:02:46;;;;;;;58.00;37.00;;;;;;;5.30;100.00;101109.64;109170;1244;72625;-69
2023/12/30 09:05:19;;;;;;;60.50;36.40;;;;;;;5.52;100.00;101105.70;109162;1244;68587;-70
2023/12/30 09:07:51;;;;;;;60.80;36.30;;;;;;;5.64;100.00;101100.85;109233;1243;73848;-70
2023/12/30 09:10:20;;;;;;;65.40;37.90;;;;;;;5.66;100.00;101096.46;109190;1247;62083;-69
2023/12/30 09:12:49;;;;;;;71.20;43.80;;;;;;;5.74;100.00;101092.45;109160;1245;58244;-69
2023/12/30 09:15:18;;;;;;;67.20;40.10;;;;;;;5.81;100.00;101092.64;109280;1245;74341;-70
2023/12/30 09:17:46;;;;;;;69.40;42.60;;;;;;;5.88;100.00;101091.27;109388;1245;71792;-70
2023/12/30 09:20:15;;;;;;;68.20;41.40;;;;;;;6.14;100.00;101082.65;109349;1244;71226;-70
2023/12/30 09:22:44;;;;;;;71.00;44.60;;;;;;;6.23;100.00;101078.23;109370;1246;73560;-70
2023/12/30 09:25:13;;;;;;;66.80;42.20;;;;;;;6.27;100.00;101071.10;109393;1246;58258;-72
2023/12/30 09:27:42;;;;;;;73.30;45.00;;;;;;;6.36;100.00;101068.25;109230;1244;58517;-70
2023/12/30 09:30:11;;;;;;;71.50;45.10;;;;;;;6.42;100.00;101062.46;109418;1244;63747;-75
2023/12/30 09:32:40;;;;;;;73.30;43.90;;;;;;;6.56;100.00;101054.80;109326;1244;72238;-70
2023/12/30 09:35:09;;;;;;;71.80;45.60;;;;;;;6.68;100.00;101054.40;109393;1244;60400;-70
2023/12/30 09:37:38;;;;;;;67.70;43.10;;;;;;;6.72;100.00;101048.45;109377;1245;63070;-69
2023/12/30 09:40:11;;;;;;;64.70;41.70;;;;;;;6.90;100.00;101044.58;109294;1246;60288;-72
2023/12/30 09:42:44;;;;;;;63.70;39.60;;;;;;;7.01;100.00;101045.06;108969;1244;57694;-70
2023/12/30 09:45:15;;;;;;;61.20;40.00;;;;;;;7.17;100.00;101040.05;109155;1246;63946;-72
2023/12/30 09:47:45;;;;;;;65.60;40.60;;;;;;;7.30;100.00;101038.54;109085;1247;71536;-71
2023/12/30 09:50:15;;;;;;;59.90;39.40;;;;;;;7.38;100.00;101028.23;109148;1245;70064;-72
2023/12/30 09:52:44;;;;;;;65.60;40.50;;;;;;;7.46;100.00;101020.85;109211;1244;74184;-71
2023/12/30 09:55:13;;;;;;;62.40;40.70;;;;;;;7.56;100.00;101014.93;108974;1249;61463;-71
2023/12/30 09:57:42;;;;;;;61.30;39.00;;;;;;;7.66;100.00;101012.95;109180;1244;61075;-71
2023/12/30 10:00:16;;;;;;;61.70;40.00;;;;;;;7.79;100.00;101010.88;109207;1245;62958;-71
2023/12/30 10:02:46;;;;;;;63.10;38.20;;;;;;;7.92;100.00;101003.92;108933;1246;71457;-70
2023/12/30 10:05:19;;;;;;;63.60;37.90;;;;;;;8.31;100.00;100998.72;109210;1244;70808;-70
2023/12/30 10:07:52;;;;;;;58.50;38.10;;;;;;;8.42;100.00;100988.39;109224;1243;73095;-71
2023/12/30 10:10:46;;;;;;;60.70;38.00;;;;;;;8.52;100.00;100982.21;109073;1247;60025;-71
2023/12/30 10:13:18;;;;;;;54.50;35.90;;;;;;;8.54;100.00;100979.34;109072;1246;196004;-70
2023/12/30 10:15:49;;;;;;;53.90;35.30;;;;;;;8.68;100.00;100974.64;109221;1244;73353;-70
2023/12/30 10:18:17;;;;;;;51.60;33.90;;;;;;;8.79;100.00;100969.15;109157;1244;71203;-71
2023/12/30 10:20:49;;;;;;;51.60;33.10;;;;;;;8.76;100.00;100965.14;109112;1244;70209;-71
2023/12/30 10:23:18;;;;;;;57.30;35.40;;;;;;;8.93;100.00;100958.39;109079;1245;73326;-70
2023/12/30 10:25:49;;;;;;;50.40;34.20;;;;;;;9.02;100.00;100951.74;109027;1244;63275;-71
2023/12/30 10:28:18;;;;;;;56.10;36.10;;;;;;;9.06;100.00;100945.43;109102;1247;58661;-70
2023/12/30 10:30:47;;;;;;;55.90;37.00;;;;;;;9.12;100.00;100938.82;109104;1246;74341;-70
2023/12/30 10:33:17;;;;;;;57.10;37.60;;;;;;;9.27;100.00;100932.47;109188;1245;62039;-70
2023/12/30 10:35:46;;;;;;;56.70;36.00;;;;;;;9.52;100.00;100928.94;109127;1244;59921;-70
2023/12/30 10:38:18;;;;;;;59.20;37.70;;;;;;;9.46;100.00;100927.29;109135;1244;63283;-71
2023/12/30 10:40:47;;;;;;;55.80;35.60;;;;;;;9.49;100.00;100927.41;109220;1245;57797;-70
2023/12/30 10:43:19;;;;;;;57.40;36.40;;;;;;;9.68;100.00;100921.83;109148;1244;58765;-70
2023/12/30 10:46:00;;;;;;;54.50;36.80;;;;;;;9.55;100.00;100912.95;109145;1244;62790;-71
2023/12/30 10:48:34;;;;;;;59.50;39.40;;;;;;;9.50;100.00;100909.11;109083;1244;71821;-70
2023/12/30 10:51:04;;;;;;;54.60;36.50;;;;;;;9.74;100.00;100904.02;109204;1244;59790;-70
2023/12/30 10:53:39;;;;;;;55.10;36.40;;;;;;;10.10;100.00;100898.29;109030;1244;63602;-69
2023/12/30 10:56:11;;;;;;;55.20;37.20;;;;;;;10.40;100.00;100894.40;109181;1245;57868;-70
2023/12/30 10:58:40;;;;;;;54.80;36.60;;;;;;;10.59;100.00;100892.41;109135;1245;58291;-69
2023/12/30 11:01:09;;;;;;;55.30;35.60;;;;;;;10.66;100.00;100887.88;109185;1244;63787;-69
2023/12/30 11:03:42;;;;;;;54.60;35.90;;;;;;;11.01;100.00;100882.30;109220;1243;61689;-70
2023/12/30 11:06:46;;;;;;;53.70;34.70;;;;;;;11.22;100.00;100875.71;109227;1244;70507;-69
2023/12/30 11:09:15;;;;;;;55.70;34.10;;;;;;;11.47;100.00;100869.55;109137;1244;71304;-70